PWSweather.com
Personal Weather Stations
Station Observations
265NC
Va2kh, Stcasimir, QC G0A 3L0

Va2khStcasimir, QC G0A 3L0

Lat: 46.65839, Lon: -72.13905

Elevation: 105

Station Type: National Geographic 265NC

http://www.qsl.net/va2kh

High Low Average
Temperature 52.0°F11.1°F 25.0°F-3.9°F 39.0°F3.9°F
Dew Point 29.9°F-1.2°F 12.7°F-10.7°F 21.6°F-5.8°F
Winds 2.8 mph SW4.5 mph SW Calm Calm 0.7 mph 1.1 mph
Wind Gusts 7.6 mph12.2 mph -- 3.3 mph5.3 mph
Humidity 75% 22% 53%
Pressure 30.71 in1040.00 in 30.36 in1028.10 in -
Precipitation 0.00 in0.00 in - -
Hour Temp Dew Point Humidity Winds Wind Gusts Pressure Precip Precip Rate Daily Precip Total
12:00 AM 30.6°F-0.8°C 20.2°F-6.6°C 65% Calm Calm 0.7 mph1.1 kmh 30.62 in1036.9 mb 0.00 in0.0 mm 0.00 in/hr0.0 mm/hr 0.00 in0.0 mm
12:15 AM 29.3°F-1.5°C 21.1°F-6.1°C 71% Calm Calm -- 30.62 in1036.9 mb 0.00 in0.0 mm 0.00 in/hr0.0 mm/hr 0.00 in0.0 mm
12:30 AM 28.9°F-1.7°C 21.4°F-5.9°C 73% Calm Calm 1.6 mph2.6 kmh 30.63 in1037.3 mb 0.00 in0.0 mm 0.00 in/hr0.0 mm/hr 0.00 in0.0 mm
12:45 AM 28.6°F-1.9°C 21.1°F-6.1°C 73% Calm Calm 2.2 mph3.5 kmh 30.63 in1037.3 mb 0.00 in0.0 mm 0.00 in/hr0.0 mm/hr 0.00 in0.0 mm
01:00 AM 28.6°F-1.9°C 21.1°F-6.1°C 73% Calm Calm 1.6 mph2.6 kmh 30.63 in1037.3 mb 0.00 in0.0 mm 0.00 in/hr0.0 mm/hr 0.00 in0.0 mm
01:15 AM 28.2°F-2.1°C 21.0°F-6.1°C 74% Calm Calm 0.7 mph1.1 kmh 30.63 in1037.3 mb 0.00 in0.0 mm 0.00 in/hr0.0 mm/hr 0.00 in0.0 mm
01:30 AM 27.5°F-2.5°C 20.3°F-6.5°C 74% Calm Calm 1.6 mph2.6 kmh 30.64 in1037.6 mb 0.00 in0.0 mm 0.00 in/hr0.0 mm/hr 0.00 in0.0 mm
01:45 AM 28.4°F-2.0°C 20.6°F-6.3°C 72% 0.4 mph N0.6 kmh N 3.1 mph5.0 kmh 30.64 in1037.6 mb 0.00 in0.0 mm 0.00 in/hr0.0 mm/hr 0.00 in0.0 mm
02:00 AM 29.3°F-1.5°C 20.1°F-6.6°C 68% 0.1 mph NNW0.2 kmh NNW 2.2 mph3.5 kmh 30.64 in1037.6 mb 0.00 in0.0 mm 0.00 in/hr0.0 mm/hr 0.00 in0.0 mm
02:15 AM 28.2°F-2.1°C 19.4°F-7.0°C 69% Calm Calm -- 30.65 in1037.9 mb 0.00 in0.0 mm 0.00 in/hr0.0 mm/hr 0.00 in0.0 mm
02:30 AM 27.1°F-2.7°C 19.3°F-7.1°C 72% Calm Calm 1.6 mph2.6 kmh 30.65 in1037.9 mb 0.00 in0.0 mm 0.00 in/hr0.0 mm/hr 0.00 in0.0 mm
02:45 AM 27.9°F-2.3°C 19.4°F-7.0°C 70% 1.2 mph NW1.9 kmh NW 3.8 mph6.1 kmh 30.66 in1038.3 mb 0.00 in0.0 mm 0.00 in/hr0.0 mm/hr 0.00 in0.0 mm
03:00 AM 28.2°F-2.1°C 19.0°F-7.2°C 68% 0.7 mph NW1.1 kmh NW 3.1 mph5.0 kmh 30.66 in1038.3 mb 0.00 in0.0 mm 0.00 in/hr0.0 mm/hr 0.00 in0.0 mm
03:15 AM 27.9°F-2.3°C 18.7°F-7.4°C 68% 0.2 mph NW0.3 kmh NW 2.2 mph3.5 kmh 30.66 in1038.3 mb 0.00 in0.0 mm 0.00 in/hr0.0 mm/hr 0.00 in0.0 mm
03:30 AM 27.3°F-2.6°C 19.2°F-7.1°C 71% 0.3 mph E0.5 kmh E 3.8 mph6.1 kmh 30.66 in1038.3 mb 0.00 in0.0 mm 0.00 in/hr0.0 mm/hr 0.00 in0.0 mm
03:45 AM 27.1°F-2.7°C 19.3°F-7.1°C 72% 0.5 mph N0.8 kmh N 2.2 mph3.5 kmh 30.67 in1038.6 mb 0.00 in0.0 mm 0.00 in/hr0.0 mm/hr 0.00 in0.0 mm
04:00 AM 27.0°F-2.8°C 19.2°F-7.1°C 72% 0.1 mph NNE0.2 kmh NNE 2.2 mph3.5 kmh 30.67 in1038.6 mb 0.00 in0.0 mm 0.00 in/hr0.0 mm/hr 0.00 in0.0 mm
04:15 AM 26.6°F-3.0°C 19.5°F-6.9°C 74% Calm Calm 1.6 mph2.6 kmh 30.68 in1038.9 mb 0.00 in0.0 mm 0.00 in/hr0.0 mm/hr 0.00 in0.0 mm
04:30 AM 26.2°F-3.2°C 19.4°F-7.0°C 75% 0.1 mph N0.2 kmh N 1.6 mph2.6 kmh 30.68 in1038.9 mb 0.00 in0.0 mm 0.00 in/hr0.0 mm/hr 0.00 in0.0 mm
04:45 AM 26.8°F-2.9°C 19.0°F-7.2°C 72% 1.0 mph N1.6 kmh N 3.1 mph5.0 kmh 30.68 in1038.9 mb 0.00 in0.0 mm 0.00 in/hr0.0 mm/hr 0.00 in0.0 mm
05:00 AM 26.8°F-2.9°C 18.7°F-7.4°C 71% 0.1 mph N0.2 kmh N 2.2 mph3.5 kmh 30.68 in1038.9 mb 0.00 in0.0 mm 0.00 in/hr0.0 mm/hr 0.00 in0.0 mm
05:15 AM 25.7°F-3.5°C 18.3°F-7.6°C 73% Calm Calm 0.7 mph1.1 kmh 30.69 in1039.3 mb 0.00 in0.0 mm 0.00 in/hr0.0 mm/hr 0.00 in0.0 mm
05:30 AM 25.0°F-3.9°C 18.2°F-7.7°C 75% Calm Calm -- 30.70 in1039.6 mb 0.00 in0.0 mm 0.00 in/hr0.0 mm/hr 0.00 in0.0 mm
05:45 AM 26.1°F-3.3°C 18.6°F-7.4°C 73% 0.5 mph N0.8 kmh N 3.1 mph5.0 kmh 30.69 in1039.3 mb 0.00 in0.0 mm 0.00 in/hr0.0 mm/hr 0.00 in0.0 mm
06:00 AM 26.6°F-3.0°C 18.5°F-7.5°C 71% 0.8 mph NE1.3 kmh NE 3.8 mph6.1 kmh 30.68 in1038.9 mb 0.00 in0.0 mm 0.00 in/hr0.0 mm/hr 0.00 in0.0 mm
06:15 AM 26.8°F-2.9°C 19.0°F-7.2°C 72% 0.6 mph N1.0 kmh N 4.5 mph7.2 kmh 30.70 in1039.6 mb 0.00 in0.0 mm 0.00 in/hr0.0 mm/hr 0.00 in0.0 mm
06:30 AM 26.8°F-2.9°C 19.0°F-7.2°C 72% 0.1 mph N0.2 kmh N 2.2 mph3.5 kmh 30.70 in1039.6 mb 0.00 in0.0 mm 0.00 in/hr0.0 mm/hr 0.00 in0.0 mm
06:45 AM 27.3°F-2.6°C 19.8°F-6.8°C 73% Calm Calm 1.6 mph2.6 kmh 30.71 in1040.0 mb 0.00 in0.0 mm 0.00 in/hr0.0 mm/hr 0.00 in0.0 mm
07:00 AM 28.6°F-1.9°C 21.1°F-6.1°C 73% 1.3 mph E2.1 kmh E 3.8 mph6.1 kmh 30.71 in1040.0 mb 0.00 in0.0 mm 0.00 in/hr0.0 mm/hr 0.00 in0.0 mm
07:15 AM 29.5°F-1.4°C 21.6°F-5.8°C 72% 1.1 mph E1.8 kmh E 3.8 mph6.1 kmh 30.71 in1040.0 mb 0.00 in0.0 mm 0.00 in/hr0.0 mm/hr 0.00 in0.0 mm
07:30 AM 30.6°F-0.8°C 22.3°F-5.4°C 71% 1.0 mph E1.6 kmh E 4.5 mph7.2 kmh 30.71 in1040.0 mb 0.00 in0.0 mm 0.00 in/hr0.0 mm/hr 0.00 in0.0 mm
07:45 AM 32.0°F0.0°C 22.7°F-5.2°C 68% Calm Calm 3.1 mph5.0 kmh 30.71 in1040.0 mb 0.00 in0.0 mm 0.00 in/hr0.0 mm/hr 0.00 in0.0 mm
08:00 AM 32.7°F0.4°C 22.3°F-5.4°C 65% 0.1 mph SSW0.2 kmh SSW 3.1 mph5.0 kmh 30.71 in1040.0 mb 0.00 in0.0 mm 0.00 in/hr0.0 mm/hr 0.00 in0.0 mm
08:15 AM 33.4°F0.8°C 22.2°F-5.4°C 63% Calm Calm 1.6 mph2.6 kmh 30.71 in1040.0 mb 0.00 in0.0 mm 0.00 in/hr0.0 mm/hr 0.00 in0.0 mm
08:30 AM 34.7°F1.5°C 22.7°F-5.2°C 61% 1.3 mph E2.1 kmh E 4.5 mph7.2 kmh 30.70 in1039.6 mb 0.00 in0.0 mm 0.00 in/hr0.0 mm/hr 0.00 in0.0 mm
08:45 AM 36.1°F2.3°C 22.8°F-5.1°C 58% 1.2 mph E1.9 kmh E 5.4 mph8.7 kmh 30.69 in1039.3 mb 0.00 in0.0 mm 0.00 in/hr0.0 mm/hr 0.00 in0.0 mm
09:00 AM 37.4°F3.0°C 22.7°F-5.2°C 55% 1.2 mph E1.9 kmh E 4.5 mph7.2 kmh 30.69 in1039.3 mb 0.00 in0.0 mm 0.00 in/hr0.0 mm/hr 0.00 in0.0 mm
09:15 AM 38.8°F3.8°C 22.7°F-5.2°C 52% 2.6 mph E4.2 kmh E 6.9 mph11.1 kmh 30.68 in1038.9 mb 0.00 in0.0 mm 0.00 in/hr0.0 mm/hr 0.00 in0.0 mm
09:30 AM 40.1°F4.5°C 22.5°F-5.3°C 49% 2.1 mph E3.4 kmh E 5.4 mph8.7 kmh 30.67 in1038.6 mb 0.00 in0.0 mm 0.00 in/hr0.0 mm/hr 0.00 in0.0 mm
09:45 AM 41.5°F5.3°C 22.8°F-5.1°C 47% 1.3 mph E2.1 kmh E 5.4 mph8.7 kmh 30.66 in1038.3 mb 0.00 in0.0 mm 0.00 in/hr0.0 mm/hr 0.00 in0.0 mm
10:00 AM 41.7°F5.4°C 22.0°F-5.6°C 45% 0.7 mph SE1.1 kmh SE 4.5 mph7.2 kmh 30.66 in1038.3 mb 0.00 in0.0 mm 0.00 in/hr0.0 mm/hr 0.00 in0.0 mm
10:15 AM 43.5°F6.4°C 24.1°F-4.4°C 46% Calm Calm 1.6 mph2.6 kmh 30.65 in1037.9 mb 0.00 in0.0 mm 0.00 in/hr0.0 mm/hr 0.00 in0.0 mm
10:30 AM 45.1°F7.3°C 22.9°F-5.1°C 41% 0.2 mph ESE0.3 kmh ESE 3.1 mph5.0 kmh 30.66 in1038.3 mb 0.00 in0.0 mm 0.00 in/hr0.0 mm/hr 0.00 in0.0 mm
10:45 AM 45.1°F7.3°C 21.1°F-6.1°C 38% 0.9 mph NNE1.4 kmh NNE 3.8 mph6.1 kmh 30.66 in1038.3 mb 0.00 in0.0 mm 0.00 in/hr0.0 mm/hr 0.00 in0.0 mm
11:00 AM 45.3°F7.4°C 22.4°F-5.3°C 40% 0.2 mph NE0.3 kmh NE 3.1 mph5.0 kmh 30.65 in1037.9 mb 0.00 in0.0 mm 0.00 in/hr0.0 mm/hr 0.00 in0.0 mm
11:15 AM 46.9°F8.3°C 22.7°F-5.2°C 38% 0.3 mph E0.5 kmh E 2.2 mph3.5 kmh 30.64 in1037.6 mb 0.00 in0.0 mm 0.00 in/hr0.0 mm/hr 0.00 in0.0 mm
11:30 AM 46.4°F8.0°C 20.9°F-6.2°C 36% 0.4 mph WNW0.6 kmh WNW 3.8 mph6.1 kmh 30.64 in1037.6 mb 0.00 in0.0 mm 0.00 in/hr0.0 mm/hr 0.00 in0.0 mm
11:45 AM 46.0°F7.8°C 21.2°F-6.0°C 37% 1.2 mph WSW1.9 kmh WSW 6.0 mph9.7 kmh 30.63 in1037.3 mb 0.00 in0.0 mm 0.00 in/hr0.0 mm/hr 0.00 in0.0 mm
12:00 PM 44.8°F7.1°C 22.0°F-5.6°C 40% 1.7 mph NW2.7 kmh NW 5.4 mph8.7 kmh 30.62 in1036.9 mb 0.00 in0.0 mm 0.00 in/hr0.0 mm/hr 0.00 in0.0 mm
12:15 PM 44.6°F7.0°C 20.0°F-6.7°C 37% 1.8 mph NW2.9 kmh NW 6.0 mph9.7 kmh 30.62 in1036.9 mb 0.00 in0.0 mm 0.00 in/hr0.0 mm/hr 0.00 in0.0 mm
12:30 PM 46.6°F8.1°C 19.7°F-6.8°C 34% 0.9 mph W1.4 kmh W 5.4 mph8.7 kmh 30.61 in1036.6 mb 0.00 in0.0 mm 0.00 in/hr0.0 mm/hr 0.00 in0.0 mm
12:45 PM 46.2°F7.9°C 18.7°F-7.4°C 33% 1.2 mph WNW1.9 kmh WNW 6.9 mph11.1 kmh 30.61 in1036.6 mb 0.00 in0.0 mm 0.00 in/hr0.0 mm/hr 0.00 in0.0 mm
01:00 PM 47.7°F8.7°C 20.0°F-6.7°C 33% 1.5 mph WSW2.4 kmh WSW 6.0 mph9.7 kmh 30.59 in1035.9 mb 0.00 in0.0 mm 0.00 in/hr0.0 mm/hr 0.00 in0.0 mm
01:15 PM 48.7°F9.3°C 20.2°F-6.6°C 32% 1.6 mph SW2.6 kmh SW 6.9 mph11.1 kmh 30.59 in1035.9 mb 0.00 in0.0 mm 0.00 in/hr0.0 mm/hr 0.00 in0.0 mm
01:30 PM 50.9°F10.5°C 19.8°F-6.8°C 29% 2.8 mph SW4.5 kmh SW 7.6 mph12.2 kmh 30.59 in1035.9 mb 0.00 in0.0 mm 0.00 in/hr0.0 mm/hr 0.00 in0.0 mm
01:45 PM 50.7°F10.4°C 18.0°F-7.8°C 27% 1.4 mph W2.3 kmh W 6.9 mph11.1 kmh 30.59 in1035.9 mb 0.00 in0.0 mm 0.00 in/hr0.0 mm/hr 0.00 in0.0 mm
02:00 PM 50.4°F10.2°C 18.5°F-7.5°C 28% 2.2 mph W3.5 kmh W 6.9 mph11.1 kmh 30.58 in1035.6 mb 0.00 in0.0 mm 0.00 in/hr0.0 mm/hr 0.00 in0.0 mm
02:15 PM 50.0°F10.0°C 12.7°F-10.7°C 22% 1.8 mph NW2.9 kmh NW 5.4 mph8.7 kmh 30.58 in1035.6 mb 0.00 in0.0 mm 0.00 in/hr0.0 mm/hr 0.00 in0.0 mm
02:30 PM 52.0°F11.1°C 16.3°F-8.7°C 24% 1.1 mph SSW1.8 kmh SSW 5.4 mph8.7 kmh 30.56 in1034.9 mb 0.00 in0.0 mm 0.00 in/hr0.0 mm/hr 0.00 in0.0 mm
02:45 PM 51.3°F10.7°C 16.7°F-8.5°C 25% 1.5 mph SSW2.4 kmh SSW 5.4 mph8.7 kmh 30.55 in1034.5 mb 0.00 in0.0 mm 0.00 in/hr0.0 mm/hr 0.00 in0.0 mm
03:00 PM 50.0°F10.0°C 19.0°F-7.2°C 29% 1.1 mph NW1.8 kmh NW 5.4 mph8.7 kmh 30.55 in1034.5 mb 0.00 in0.0 mm 0.00 in/hr0.0 mm/hr 0.00 in0.0 mm
03:15 PM 49.8°F9.9°C 19.7°F-6.8°C 30% 1.3 mph SW2.1 kmh SW 4.5 mph7.2 kmh 30.55 in1034.5 mb 0.00 in0.0 mm 0.00 in/hr0.0 mm/hr 0.00 in0.0 mm
03:30 PM 49.6°F9.8°C 18.7°F-7.4°C 29% 0.6 mph N1.0 kmh N 3.1 mph5.0 kmh 30.54 in1034.2 mb 0.00 in0.0 mm 0.00 in/hr0.0 mm/hr 0.00 in0.0 mm
03:45 PM 49.8°F9.9°C 18.0°F-7.8°C 28% 1.5 mph NNE2.4 kmh NNE 3.8 mph6.1 kmh 30.54 in1034.2 mb 0.00 in0.0 mm 0.00 in/hr0.0 mm/hr 0.00 in0.0 mm
04:00 PM 49.8°F9.9°C 18.9°F-7.3°C 29% 0.3 mph NE0.5 kmh NE 3.1 mph5.0 kmh 30.54 in1034.2 mb 0.00 in0.0 mm 0.00 in/hr0.0 mm/hr 0.00 in0.0 mm
04:15 PM 50.0°F10.0°C 19.8°F-6.8°C 30% 1.1 mph NE1.8 kmh NE 3.1 mph5.0 kmh 30.53 in1033.9 mb 0.00 in0.0 mm 0.00 in/hr0.0 mm/hr 0.00 in0.0 mm
04:30 PM 50.4°F10.2°C 20.1°F-6.6°C 30% 0.3 mph NE0.5 kmh NE 2.2 mph3.5 kmh 30.52 in1033.5 mb 0.00 in0.0 mm 0.00 in/hr0.0 mm/hr 0.00 in0.0 mm
04:45 PM 51.1°F10.6°C 20.7°F-6.3°C 30% 0.5 mph NE0.8 kmh NE 3.1 mph5.0 kmh 30.51 in1033.2 mb 0.00 in0.0 mm 0.00 in/hr0.0 mm/hr 0.00 in0.0 mm
05:00 PM 50.4°F10.2°C 20.9°F-6.2°C 31% 1.3 mph E2.1 kmh E 3.8 mph6.1 kmh 30.51 in1033.2 mb 0.00 in0.0 mm 0.00 in/hr0.0 mm/hr 0.00 in0.0 mm
05:15 PM 50.4°F10.2°C 20.9°F-6.2°C 31% 1.3 mph E2.1 kmh E 4.5 mph7.2 kmh 30.50 in1032.8 mb 0.00 in0.0 mm 0.00 in/hr0.0 mm/hr 0.00 in0.0 mm
05:30 PM 49.6°F9.8°C 19.5°F-6.9°C 30% 1.0 mph ENE1.6 kmh ENE 3.1 mph5.0 kmh 30.50 in1032.8 mb 0.00 in0.0 mm 0.00 in/hr0.0 mm/hr 0.00 in0.0 mm
05:45 PM 48.9°F9.4°C 20.4°F-6.4°C 32% Calm Calm 2.2 mph3.5 kmh 30.50 in1032.8 mb 0.00 in0.0 mm 0.00 in/hr0.0 mm/hr 0.00 in0.0 mm
06:00 PM 48.0°F8.9°C 19.6°F-6.9°C 32% 0.9 mph E1.4 kmh E 3.1 mph5.0 kmh 30.48 in1032.2 mb 0.00 in0.0 mm 0.00 in/hr0.0 mm/hr 0.00 in0.0 mm
06:15 PM 47.3°F8.5°C 21.1°F-6.1°C 35% Calm Calm 1.6 mph2.6 kmh 30.48 in1032.2 mb 0.00 in0.0 mm 0.00 in/hr0.0 mm/hr 0.00 in0.0 mm
06:30 PM 47.1°F8.4°C 22.8°F-5.1°C 38% Calm Calm 1.6 mph2.6 kmh 30.48 in1032.2 mb 0.00 in0.0 mm 0.00 in/hr0.0 mm/hr 0.00 in0.0 mm
06:45 PM 46.6°F8.1°C 23.6°F-4.7°C 40% 0.4 mph ESE0.6 kmh ESE 2.2 mph3.5 kmh 30.47 in1031.8 mb 0.00 in0.0 mm 0.00 in/hr0.0 mm/hr 0.00 in0.0 mm
07:00 PM 46.2°F7.9°C 23.8°F-4.6°C 41% 0.6 mph E1.0 kmh E 2.2 mph3.5 kmh 30.46 in1031.5 mb 0.00 in0.0 mm 0.00 in/hr0.0 mm/hr 0.00 in0.0 mm
07:15 PM 45.5°F7.5°C 24.9°F-3.9°C 44% 1.2 mph SE1.9 kmh SE 3.1 mph5.0 kmh 30.45 in1031.2 mb 0.00 in0.0 mm 0.00 in/hr0.0 mm/hr 0.00 in0.0 mm
07:30 PM 44.8°F7.1°C 24.8°F-4.0°C 45% 0.5 mph SE0.8 kmh SE 3.1 mph5.0 kmh 30.45 in1031.2 mb 0.00 in0.0 mm 0.00 in/hr0.0 mm/hr 0.00 in0.0 mm
07:45 PM 44.2°F6.8°C 23.7°F-4.6°C 44% 0.1 mph SE0.2 kmh SE 1.6 mph2.6 kmh 30.44 in1030.8 mb 0.00 in0.0 mm 0.00 in/hr0.0 mm/hr 0.00 in0.0 mm
08:00 PM 43.7°F6.5°C 24.8°F-4.0°C 47% 0.4 mph SE0.6 kmh SE 2.2 mph3.5 kmh 30.44 in1030.8 mb 0.00 in0.0 mm 0.00 in/hr0.0 mm/hr 0.00 in0.0 mm
08:15 PM 43.3°F6.3°C 24.5°F-4.2°C 47% 0.6 mph SE1.0 kmh SE 3.1 mph5.0 kmh 30.44 in1030.8 mb 0.00 in0.0 mm 0.00 in/hr0.0 mm/hr 0.00 in0.0 mm
08:30 PM 42.8°F6.0°C 24.0°F-4.4°C 47% 0.5 mph SE0.8 kmh SE 3.8 mph6.1 kmh 30.44 in1030.8 mb 0.00 in0.0 mm 0.00 in/hr0.0 mm/hr 0.00 in0.0 mm
08:45 PM 42.3°F5.7°C 25.0°F-3.9°C 50% 0.3 mph SE0.5 kmh SE 2.2 mph3.5 kmh 30.43 in1030.5 mb 0.00 in0.0 mm 0.00 in/hr0.0 mm/hr 0.00 in0.0 mm
09:00 PM 41.2°F5.1°C 27.5°F-2.5°C 58% Calm Calm 1.6 mph2.6 kmh 30.43 in1030.5 mb 0.00 in0.0 mm 0.00 in/hr0.0 mm/hr 0.00 in0.0 mm
09:15 PM 40.3°F4.6°C 28.3°F-2.1°C 62% Calm Calm 1.6 mph2.6 kmh 30.42 in1030.1 mb 0.00 in0.0 mm 0.00 in/hr0.0 mm/hr 0.00 in0.0 mm
09:30 PM 39.4°F4.1°C 29.4°F-1.4°C 67% Calm Calm 1.6 mph2.6 kmh 30.42 in1030.1 mb 0.00 in0.0 mm 0.00 in/hr0.0 mm/hr 0.00 in0.0 mm
09:45 PM 38.8°F3.8°C 29.2°F-1.6°C 68% Calm Calm -- 30.42 in1030.1 mb 0.00 in0.0 mm 0.00 in/hr0.0 mm/hr 0.00 in0.0 mm
10:00 PM 38.5°F3.6°C 29.9°F-1.2°C 71% Calm Calm 0.7 mph1.1 kmh 30.42 in1030.1 mb 0.00 in0.0 mm 0.00 in/hr0.0 mm/hr 0.00 in0.0 mm
10:15 PM 38.3°F3.5°C 29.4°F-1.4°C 70% 0.2 mph SE0.3 kmh SE 2.2 mph3.5 kmh 30.40 in1029.5 mb 0.00 in0.0 mm 0.00 in/hr0.0 mm/hr 0.00 in0.0 mm
10:30 PM 38.5°F3.6°C 29.2°F-1.6°C 69% 0.3 mph SE0.5 kmh SE 1.6 mph2.6 kmh 30.39 in1029.1 mb 0.00 in0.0 mm 0.00 in/hr0.0 mm/hr 0.00 in0.0 mm
10:45 PM 38.3°F3.5°C 28.7°F-1.8°C 68% 0.5 mph N0.8 kmh N 3.8 mph6.1 kmh 30.39 in1029.1 mb 0.00 in0.0 mm 0.00 in/hr0.0 mm/hr 0.00 in0.0 mm
11:00 PM 38.7°F3.7°C 27.2°F-2.7°C 63% 0.8 mph N1.3 kmh N 3.8 mph6.1 kmh 30.38 in1028.8 mb 0.00 in0.0 mm 0.00 in/hr0.0 mm/hr 0.00 in0.0 mm
11:15 PM 38.8°F3.8°C 25.8°F-3.4°C 59% 1.1 mph NE1.8 kmh NE 6.0 mph9.7 kmh 30.38 in1028.8 mb 0.00 in0.0 mm 0.00 in/hr0.0 mm/hr 0.00 in0.0 mm
11:30 PM 38.8°F3.8°C 26.2°F-3.2°C 60% 1.3 mph NNE2.1 kmh NNE 5.4 mph8.7 kmh 30.36 in1028.1 mb 0.00 in0.0 mm 0.00 in/hr0.0 mm/hr 0.00 in0.0 mm
11:45 PM 39.0°F3.9°C 25.1°F-3.8°C 57% 2.2 mph NE3.5 kmh NE 5.4 mph8.7 kmh 30.36 in1028.1 mb 0.00 in0.0 mm 0.00 in/hr0.0 mm/hr 0.00 in0.0 mm